VCRI

Mattala Rajapaksa International Airport

Sri Lanka
TAF VCRI 221100Z 2212/2318 04006KT 9000 FEW018 BKN280 TX32/2308Z TN22/2300Z BECMG 2216/2218 VRB05KT TEMPO 2223/2302 7000 BECMG 2304/2306 05008KT
Issued Valid From Valid To
Jan-22 @ 11:00 UTC
(6 hours ago)
Jan-22 @ 12:00 UTC
(5 hours ago)
Jan-23 @ 18:00 UTC
(-1 days ago)
Expired Click to View Jan-22 @ 12:00 to Jan-22 @ 16:00
TAF VCRI 221100Z 2212/2318 04006KT 9000 FEW018 BKN280 TX32/2308Z TN22/2300Z
Wind Visibility Clouds
40° at 6 knots 8,996 meters
  • Few at 1,800' AGL
  • Broken at 28,000' AGL
Becoming Jan-22 @ 16:00 to Jan-23 @ 04:00
BECMG 2216/2218 VRB05KT
Wind Visibility Clouds
Variable at 5 knots 8,996 meters
  • Few at 1,800' AGL
  • Broken at 28,000' AGL
Temporary Jan-22 @ 23:00 to Jan-23 @ 02:00
TEMPO 2223/2302 7000
Visibility
7,001 meters
Becoming Jan-23 @ 04:00 to Jan-23 @ 18:00
BECMG 2304/2306 05008KT
Wind Visibility Clouds
50° at 8 knots 8,996 meters
  • Few at 1,800' AGL
  • Broken at 28,000' AGL
TAF VCRI 221100Z 2212/2318 04006KT 9000 FEW018 BKN280 TX32/2308Z TN22/2300Z BECMG 2216/2218 VRB05KT TEMPO 2223/2302 7000 BECMG 2304/2306 05008KT
Issued Jan-22 @ 11:00 UTC
(6 hours ago)
Valid From Jan-22 @ 12:00 UTC
(5 hours ago)
Valid To Jan-23 @ 18:00 UTC
(-1 days ago)
Jan-22 @ 12:00 - Jan-22 @ 16:00
Wind Visibility
40° at 6 knots 8,996 meters
Clouds
  • Few at 1,800' AGL
  • Broken at 28,000' AGL
Becoming Jan-22 @ 16:00 - Jan-23 @ 04:00
Wind Visibility
Variable at 5 knots 8,996 meters
Clouds
  • Few at 1,800' AGL
  • Broken at 28,000' AGL
Temporary Jan-22 @ 23:00 - Jan-23 @ 02:00
Becoming Jan-23 @ 04:00 - Jan-23 @ 18:00
Wind Visibility
50° at 8 knots 8,996 meters
Clouds
  • Few at 1,800' AGL
  • Broken at 28,000' AGL